Latest Weather Observations for Coldstream

IDV60901

Issued at 11:41 am EST Sunday 22 September 2019 (issued every 10 minutes, with the page automatically refreshed every 10 minutes)

About weather observations | Map of Melbourne area stations | Latest observations for Melbourne area | Other Formats
Station Details ID: 086383 Name: COLDSTREAM Lat: -37.72 Lon: 145.41 Height: 83.0 m
Data from the previous 72 hours. | See also: Recent months at Coldstream
Date/Time
EST
Temp
°C
App
Temp
°C
Dew
Point
°C
Rel
Hum
%
Delta-T
°C
Wind Press
QNH
hPa
Press
MSL
hPa
Rain since
9am
mm
Dir  Spd
km/h
Gust
km/h
Spd
kts
Gust
kts
22/11:30am 13.6 8.8 2.8 48 4.8 NW 17 24 9 13 1022.9 1023.0 0.0
22/11:00am 12.9 8.1 2.5 49 4.5 NW 17 24 9 13 1023.2 1023.3 0.0
22/10:30am 12.6 7.5 3.0 52 4.3 NW 19 28 10 15 1023.4 1023.5 0.0
22/10:00am 12.1 8.0 4.1 58 3.6 NW 15 20 8 11 1023.6 1023.7 0.0
22/09:30am 11.4 7.1 3.4 58 3.5 NNW 15 22 8 12 1023.8 1023.9 0.0
22/09:00am 10.6 6.7 3.2 60 3.2 NNW 13 22 7 12 1023.5 1023.6 8.0
22/08:30am 10.2 6.5 4.6 68 2.5 NW 13 19 7 10 1023.3 1023.4 8.0
22/08:00am 8.9 6.8 6.7 86 1.0 N 7 13 4 7 1023.1 1023.2 8.0
22/07:30am 6.7 5.9 6.7 100 0.0 CALM 0 0 0 0 1023.1 1023.2 8.0
22/07:00am 4.6 3.4 4.5 99 0.0 CALM 0 0 0 0 1022.9 1023.0 8.0
22/06:30am 3.4 2.0 3.3 99 0.0 CALM 0 0 0 0 1022.5 1022.6 8.0
22/06:00am 3.9 2.5 3.8 99 0.0 CALM 0 0 0 0 1022.1 1022.2 8.0
22/05:30am 4.8 3.6 4.7 99 0.0 CALM 0 0 0 0 1021.5 1021.6 8.0
22/05:00am 6.1 4.7 5.5 96 0.3 NNW 2 6 1 3 1021.1 1021.2 8.0
22/04:30am 7.6 5.5 6.7 94 0.4 NW 7 9 4 5 1020.7 1020.8 8.0
22/04:00am 8.1 5.7 7.0 93 0.5 NW 9 15 5 8 1020.4 1020.5 8.0
22/03:30am 8.4 6.8 7.8 96 0.3 NW 6 7 3 4 1020.4 1020.5 8.0
22/03:00am 8.7 7.6 8.6 99 0.0 NNW 4 7 2 4 1020.3 1020.4 8.0
22/02:30am 8.8 7.2 8.7 99 0.0 NW 7 9 4 5 1020.2 1020.3 8.0
22/02:00am 8.9 7.2 8.5 97 0.2 NW 7 9 4 5 1020.1 1020.2 8.0
22/01:30am 8.9 6.9 8.8 99 0.0 NW 9 13 5 7 1020.1 1020.2 8.0
22/01:00am 9.0 7.1 8.9 99 0.0 NW 9 11 5 6 1020.0 1020.1 8.0
22/12:30am 9.1 7.2 9.0 99 0.0 NW 9 11 5 6 1019.8 1019.9 8.0
22/12:00am 9.2 7.3 9.1 99 0.0 WNW 9 13 5 7 1019.5 1019.6 8.0
 
Date/Time
EST
Temp
°C
App
Temp
°C
Dew
Point
°C
Rel
Hum
%
Delta-T
°C
Wind Press
QNH
hPa
Press
MSL
hPa
Rain since
9am
mm
Dir  Spd
km/h
Gust
km/h
Spd
kts
Gust
kts
21/11:30pm 9.3 5.0 9.2 99 0.0 W 22 32 12 17 1019.1 1019.2 7.8
21/11:00pm 9.9 8.6 9.8 99 0.1 NW 7 9 4 5 1018.8 1018.9 7.2
21/10:30pm 10.2 9.9 10.1 99 0.1 NNW 2 6 1 3 1018.6 1018.7 6.6
21/10:00pm 10.2 8.9 10.1 99 0.1 NW 7 9 4 5 1018.3 1018.3 6.6
21/09:30pm 10.3 7.9 10.1 99 0.1 W 13 15 7 8 1018.4 1018.4 6.6
21/09:00pm 10.6 9.1 10.4 99 0.1 WNW 9 13 5 7 1018.2 1018.2 6.4
21/08:30pm 10.5 9.5 10.3 99 0.1 N 6 11 3 6 1017.8 1017.8 4.2
21/08:00pm 10.3 10.0 10.1 99 0.1 NW 2 6 1 3 1017.4 1017.4 3.8
21/07:30pm 10.4 9.1 9.9 97 0.3 W 7 11 4 6 1016.9 1016.9 3.8
21/07:00pm 11.2 9.2 10.3 94 0.5 WSW 11 17 6 9 1016.6 1016.6 3.8
21/06:30pm 11.5 11.9 11.3 99 0.1 CALM 0 9 0 5 1016.0 1016.0 3.8
21/06:00pm 11.7 9.6 11.1 96 0.3 W 13 19 7 10 1015.3 1015.3 3.6
21/05:30pm 12.0 5.8 9.2 83 1.4 W 32 46 17 25 1014.7 1014.7 3.2
21/05:00pm 14.8 9.6 7.1 60 3.8 WNW 24 39 13 21 1013.7 1013.8 3.0
21/04:30pm 16.8 10.9 6.0 49 5.3 NNW 26 44 14 24 1012.6 1012.7 3.0
21/04:01pm 17.0 10.7 7.4 53 4.8 NW 30 48 16 26 1011.8 1011.9 3.0
21/04:00pm 17.1 10.4 7.5 53 4.8 NW 32 48 17 26 1011.8 1011.9 3.0
21/03:30pm 16.7 10.4 7.6 55 4.6 NNW 30 52 16 28 1011.3 1011.4 3.0
21/03:22pm 17.7 11.9 8.0 53 5.0 NNW 28 46 15 25 1011.1 1011.2 3.0
21/03:00pm 17.9 13.4 8.5 54 4.9 NNW 22 37 12 20 1010.9 1011.0 3.0
21/02:30pm 17.7 13.0 9.3 58 4.4 NNW 24 52 13 28 1010.4 1010.5 3.0
21/02:14pm 17.5 12.1 9.4 59 4.3 NNW 28 50 15 27 1010.3 1010.4 3.0
21/02:00pm 16.6 12.1 10.0 65 3.5 NNW 24 39 13 21 1010.3 1010.4 3.0
21/01:30pm 16.3 13.5 12.7 79 2.0 NNW 19 33 10 18 1009.7 1009.8 3.0
21/01:00pm 15.6 14.8 15.1 97 0.3 N 13 22 7 12 1009.6 1009.7 3.0
21/12:30pm 13.4 10.5 12.9 97 0.3 NW 20 35 11 19 1010.2 1010.3 2.8
21/12:05pm 14.8 9.8 10.8 77 2.1 NNW 28 46 15 25 1009.8 1009.9 0.6
21/12:00pm 15.6 11.2 10.4 71 2.8 NNW 24 41 13 22 1009.6 1009.7 0.4
21/11:30am 18.0 14.8 10.1 60 4.2 N 17 28 9 15 1008.1 1008.1 0.0
21/11:00am 18.6 15.2 10.7 60 4.3 NNW 19 35 10 19 1007.8 1007.8 0.0
21/10:30am 19.9 15.9 10.3 54 5.2 N 22 33 12 18 1007.4 1007.4 0.0
21/10:00am 20.1 15.6 10.2 53 5.4 N 24 41 13 22 1007.6 1007.6 0.0
21/09:30am 20.3 15.4 10.1 52 5.5 N 26 43 14 23 1006.6 1006.6 0.0
21/09:00am 21.3 14.0 10.2 49 6.1 N 39 65 21 35 1007.4 1007.4 0.0
21/08:30am 22.1 16.4 9.9 46 6.6 N 30 61 16 33 1006.0 1006.0 0.0
21/08:14am 22.0 16.8 10.2 47 6.4 N 28 48 15 26 1006.0 1006.0 0.0
21/08:00am 22.2 17.3 10.0 46 6.7 N 26 46 14 25 1006.0 1006.0 0.0
21/07:30am 22.1 17.2 9.9 46 6.6 N 26 43 14 23 1006.1 1006.1 0.0
21/07:00am 22.0 16.7 9.9 46 6.6 N 28 46 15 25 1005.8 1005.8 0.0
21/06:30am 22.4 16.6 9.6 44 6.9 N 30 50 16 27 1004.9 1004.9 0.0
21/06:22am 22.1 16.7 9.6 45 6.8 N 28 46 15 25 1004.9 1004.9 0.0
21/06:00am 21.8 16.8 9.7 46 6.6 N 26 41 14 22 1005.1 1005.1 0.0
21/05:30am 21.8 16.8 9.7 46 6.5 N 26 41 14 22 1005.2 1005.2 0.0
21/05:00am 22.0 17.8 9.9 46 6.6 N 22 39 12 21 1005.6 1005.6 0.0
21/04:30am 22.3 17.3 9.5 44 6.9 N 26 43 14 23 1005.3 1005.3 0.0
21/04:00am 21.8 17.6 9.7 46 6.6 N 22 35 12 19 1005.6 1005.6 0.0
21/03:30am 22.3 18.0 9.5 44 6.9 N 22 37 12 20 1006.0 1006.0 0.0
21/03:00am 21.9 18.7 9.8 46 6.6 N 17 28 9 15 1006.5 1006.5 0.0
21/02:30am 20.8 19.0 9.4 48 6.1 N 9 17 5 9 1007.0 1007.0 0.0
21/02:00am 21.8 19.5 9.0 44 6.9 NNE 11 22 6 12 1007.6 1007.6 0.0
21/01:30am 22.6 18.7 8.7 41 7.4 N 19 28 10 15 1008.2 1008.2 0.0
21/01:00am 21.6 18.6 9.2 45 6.7 N 15 22 8 12 1008.7 1008.8 0.0
21/12:30am 21.8 18.0 9.0 44 6.8 N 19 28 10 15 1009.1 1009.2 0.0
21/12:00am 22.0 18.2 9.2 44 6.9 N 19 30 10 16 1009.6 1009.7 0.0
 
Date/Time
EST
Temp
°C
App
Temp
°C
Dew
Point
°C
Rel
Hum
%
Delta-T
°C
Wind Press
QNH
hPa
Press
MSL
hPa
Rain since
9am
mm
Dir  Spd
km/h
Gust
km/h
Spd
kts
Gust
kts
20/11:30pm 22.2 18.8 9.0 43 7.1 N 17 32 9 17 1009.9 1010.0 0.0
20/11:00pm 22.4 19.7 8.9 42 7.2 N 13 26 7 14 1010.2 1010.3 0.0
20/10:30pm 22.5 19.4 9.0 42 7.2 N 15 35 8 19 1010.7 1010.8 0.0
20/10:00pm 21.6 19.8 9.5 46 6.5 NNE 9 22 5 12 1011.0 1011.1 0.0
20/09:30pm 22.4 18.7 9.6 44 6.9 NE 19 35 10 19 1011.5 1011.6 0.0
20/09:00pm 22.3 19.4 9.8 45 6.8 NE 15 28 8 15 1011.9 1012.0 0.0
20/08:30pm 22.3 19.1 9.8 45 6.8 NE 17 32 9 17 1012.2 1012.3 0.0
20/08:00pm 21.8 19.8 10.0 47 6.4 NE 11 19 6 10 1012.5 1012.6 0.0
20/07:30pm 21.6 19.6 10.1 48 6.3 NNE 11 20 6 11 1012.9 1013.0 0.0
20/07:00pm 21.5 20.4 10.6 50 6.0 NNE 7 13 4 7 1013.0 1013.1 0.0
20/06:30pm 21.7 19.8 10.5 49 6.1 NNE 11 22 6 12 1013.2 1013.3 0.0
20/06:00pm 22.1 20.3 10.9 49 6.2 NNE 11 20 6 11 1013.2 1013.3 0.0
20/05:30pm 22.0 20.4 11.4 51 5.9 NE 11 24 6 13 1013.3 1013.4 0.0
20/05:00pm 23.2 22.2 12.2 50 6.3 NE 9 19 5 10 1013.5 1013.6 0.0
20/04:30pm 23.3 20.7 10.7 45 7.0 NNE 15 30 8 16 1013.6 1013.7 0.0
20/04:00pm 23.6 20.6 10.6 44 7.2 N 17 26 9 14 1013.5 1013.6 0.0
20/03:30pm 24.7 21.4 10.9 42 7.7 N 19 30 10 16 1013.7 1013.8 0.0
20/03:00pm 23.6 19.8 11.0 45 7.0 N 22 43 12 23 1014.3 1014.3 0.0
20/02:30pm 24.4 21.4 12.0 46 7.1 N 19 33 10 18 1014.7 1014.7 0.0
20/02:00pm 24.2 20.2 10.5 42 7.6 N 22 35 12 19 1015.1 1015.1 0.0
20/01:30pm 23.8 20.8 12.1 48 6.7 N 19 32 10 17 1015.8 1015.8 0.0
20/01:00pm 24.8 21.5 11.7 44 7.4 N 20 35 11 19 1016.1 1016.1 0.0
20/12:30pm 24.6 21.4 11.9 45 7.2 N 20 33 11 18 1016.5 1016.5 0.0
20/12:00pm 24.4 20.7 11.4 44 7.3 N 22 35 12 19 1016.7 1016.7 0.0
20/11:30am 24.0 21.3 11.7 46 7.0 NNW 17 26 9 14 1017.2 1017.2 0.0
20/11:00am 22.1 18.6 10.9 49 6.2 NNW 20 32 11 17 1017.7 1017.7 0.0
20/10:30am 21.1 20.3 11.7 55 5.3 N 7 13 4 7 1018.0 1018.0 0.0
20/10:00am 21.2 20.4 11.8 55 5.3 N 7 13 4 7 1017.8 1017.8 0.0
20/09:30am 20.6 21.1 12.8 61 4.4 ENE 2 9 1 5 1018.2 1018.2 0.0
20/09:00am 19.9 20.9 13.1 65 3.9 CALM 0 0 0 0 1018.6 1018.7 0.0
20/08:30am 20.0 18.2 10.7 55 5.1 N 11 17 6 9 1018.5 1018.6 0.0
20/08:00am 19.5 17.9 10.2 55 5.0 NNW 9 15 5 8 1018.5 1018.6 0.0
20/07:30am 19.2 17.7 10.5 57 4.7 NNW 9 15 5 8 1018.4 1018.4 0.0
20/07:00am 17.4 16.8 10.5 64 3.7 NNW 4 13 2 7 1018.0 1018.0 0.0
20/06:30am 17.5 16.7 9.7 60 4.1 S 4 7 2 4 1017.8 1017.8 0.0
20/06:00am 18.7 17.8 9.2 54 5.0 SE 4 19 2 10 1017.4 1017.4 0.0
20/05:30am 20.2 18.0 9.2 49 5.8 N 11 22 6 12 1017.0 1017.0 0.0
20/05:00am 20.5 17.8 9.1 48 6.0 N 13 28 7 15 1017.0 1017.0 0.0
20/04:30am 20.3 17.4 9.5 50 5.8 NNE 15 24 8 13 1016.8 1016.8 0.0
20/04:00am 20.5 17.9 9.4 49 5.9 NNE 13 24 7 13 1016.5 1016.5 0.0
20/03:30am 20.4 17.9 9.6 50 5.8 NNE 13 30 7 16 1016.3 1016.3 0.0
20/03:00am 20.7 18.2 9.6 49 6.0 NE 13 35 7 19 1016.2 1016.2 0.0
20/02:30am 20.5 17.6 9.7 50 5.8 N 15 24 8 13 1016.5 1016.5 0.0
20/02:00am 20.4 17.9 9.6 50 5.8 NNE 13 28 7 15 1016.5 1016.5 0.0
20/01:30am 20.1 18.4 9.7 51 5.6 NNE 9 30 5 16 1016.7 1016.7 0.0
20/01:00am 20.7 17.9 9.9 50 5.8 NNE 15 30 8 16 1016.6 1016.6 0.0
20/12:30am 20.5 18.1 10.0 51 5.7 NNE 13 22 7 12 1016.9 1016.9 0.0
20/12:00am 21.0 18.3 10.2 50 5.9 NNE 15 30 8 16 1017.0 1017.0 0.0
 
Date/Time
EST
Temp
°C
App
Temp
°C
Dew
Point
°C
Rel
Hum
%
Delta-T
°C
Wind Press
QNH
hPa
Press
MSL
hPa
Rain since
9am
mm
Dir  Spd
km/h
Gust
km/h
Spd
kts
Gust
kts
19/11:30pm 20.7 18.7 10.2 51 5.7 NE 11 26 6 14 1017.2 1017.2 0.0
19/11:00pm 20.7 18.3 10.2 51 5.7 NNE 13 26 7 14 1017.3 1017.3 0.0
19/10:30pm 20.7 17.3 10.5 52 5.6 NNE 19 33 10 18 1017.1 1017.1 0.0
19/10:00pm 21.2 17.6 10.4 50 5.9 NNE 20 35 11 19 1017.1 1017.1 0.0
19/09:30pm 20.9 17.8 10.4 51 5.7 NNE 17 32 9 17 1017.1 1017.1 0.0
19/09:00pm 21.0 17.3 10.2 50 5.9 NNE 20 35 11 19 1016.8 1016.8 0.0
19/08:30pm 20.7 17.3 10.5 52 5.6 NE 19 32 10 17 1016.9 1016.9 0.0
19/08:00pm 20.9 17.3 10.7 52 5.6 NNE 20 39 11 21 1017.0 1017.0 0.0
19/07:30pm 20.7 17.2 10.8 53 5.4 NNE 20 32 11 17 1017.2 1017.2 0.0
19/07:00pm 20.3 18.2 11.0 55 5.1 NNE 13 28 7 15 1017.2 1017.2 0.0
19/06:30pm 20.1 17.4 11.6 58 4.7 N 17 28 9 15 1017.4 1017.4 0.0
19/06:00pm 20.2 18.2 11.4 57 4.9 NNE 13 22 7 12 1017.6 1017.6 0.0
19/05:30pm 20.2 18.2 11.4 57 4.9 N 13 20 7 11 1017.6 1017.6 0.0
19/05:00pm 21.1 17.3 11.2 53 5.5 N 22 35 12 19 1017.3 1017.3 0.0
19/04:30pm 22.0 19.1 11.1 50 6.1 N 17 30 9 16 1017.4 1017.4 0.0
19/04:00pm 22.6 20.5 12.3 52 5.9 N 15 28 8 15 1017.4 1017.4 0.0
19/03:30pm 22.5 18.5 10.3 46 6.7 N 22 33 12 18 1017.7 1017.7 0.0
19/03:00pm 22.6 19.3 11.7 50 6.1 N 20 35 11 19 1018.1 1018.1 0.0
19/02:30pm 22.2 17.7 11.3 50 6.1 N 26 39 14 21 1018.5 1018.6 0.0
19/02:00pm 22.0 17.4 11.1 50 6.0 N 26 39 14 21 1019.0 1019.1 0.0
19/01:30pm 21.8 18.1 12.6 56 5.2 N 24 35 13 19 1019.1 1019.2 0.0
19/01:00pm 22.0 19.3 13.4 58 5.0 N 20 35 11 19 1019.8 1019.9 0.0
19/12:30pm 21.2 17.4 11.2 53 5.5 N 22 35 12 19 1020.3 1020.4 0.0
19/12:00pm 21.1 17.8 11.7 55 5.2 N 20 32 11 17 1020.8 1020.9 0.0

Latest Capital City Observations: Canberra | Sydney | Melbourne | Brisbane | Adelaide | Perth | Hobart | Darwin

Other formats

Comma delimited format used in spreadsheet applications
http://www.bom.gov.au/fwo/IDV60901/IDV60901.94864.axf

JavaScript Object Notation format (JSON) in row-major order
http://www.bom.gov.au/fwo/IDV60901/IDV60901.94864.json

Data quality

Most of these data are generated automatically and are frequently updated. Quality checks on data are not normally performed. It is possible for incorrect values to appear. Refer to information at About Latest Weather Observations and please check the disclaimer before using these data.